createdAt,value
2023-02-22T00:01:35.707Z,101137.41
2023-02-22T00:04:06.920Z,101146.41
2023-02-22T00:06:34.228Z,101142.59
2023-02-22T00:09:04.975Z,101136.03
2023-02-22T00:11:31.820Z,101137.50
2023-02-22T00:13:58.794Z,101141.47
2023-02-22T00:16:26.637Z,101142.53
2023-02-22T00:18:55.108Z,101142.63
2023-02-22T00:21:22.570Z,101134.91
2023-02-22T00:23:49.654Z,101136.59
2023-02-22T00:26:21.253Z,101141.75
2023-02-22T00:28:50.342Z,101137.59
2023-02-22T00:31:18.102Z,101125.97
2023-02-22T00:33:45.238Z,101126.69
2023-02-22T00:36:13.139Z,101132.63
2023-02-22T00:38:41.214Z,101132.13
2023-02-22T00:41:08.000Z,101136.50
2023-02-22T00:43:35.083Z,101132.72
2023-02-22T00:46:01.974Z,101139.97
2023-02-22T00:48:29.888Z,101137.00
2023-02-22T00:50:56.698Z,101132.38
2023-02-22T00:53:25.137Z,101130.41
2023-02-22T00:55:52.694Z,101127.50
2023-02-22T00:58:19.576Z,101129.59
2023-02-22T01:00:46.940Z,101129.16
2023-02-22T01:03:16.338Z,101121.75
2023-02-22T01:05:43.529Z,101117.56
2023-02-22T01:08:12.697Z,101124.03
2023-02-22T01:10:40.131Z,101114.03
2023-02-22T01:13:12.326Z,101107.78
2023-02-22T01:15:42.042Z,101099.38
2023-02-22T01:18:10.191Z,101095.25
2023-02-22T01:20:37.237Z,101094.13
2023-02-22T01:23:07.045Z,101100.84
2023-02-22T01:25:34.874Z,101099.97
2023-02-22T01:28:03.873Z,101092.75
2023-02-22T01:30:35.618Z,101089.28
2023-02-22T01:33:04.406Z,101084.78
2023-02-22T01:35:34.457Z,101088.25
2023-02-22T01:38:01.442Z,101079.16
2023-02-22T01:40:34.155Z,101088.13
2023-02-22T01:43:14.121Z,101076.84
2023-02-22T01:45:47.155Z,101080.47
2023-02-22T01:48:26.237Z,101083.13
2023-02-22T01:51:00.448Z,101069.56
2023-02-22T01:53:32.609Z,101073.00
2023-02-22T01:56:00.358Z,101067.75
2023-02-22T01:58:28.757Z,101059.63
2023-02-22T02:00:58.146Z,101067.78
2023-02-22T02:03:28.705Z,101064.81
2023-02-22T02:05:58.483Z,101067.31
2023-02-22T02:08:42.497Z,101056.50
2023-02-22T02:11:10.055Z,101049.34
2023-02-22T02:13:37.224Z,101051.78
2023-02-22T02:16:04.227Z,101051.75
2023-02-22T02:18:32.700Z,101053.44
2023-02-22T02:21:33.162Z,101046.72
2023-02-22T02:24:28.478Z,101050.34
2023-02-22T02:27:11.974Z,101033.69
2023-02-22T02:30:13.284Z,101039.03
2023-02-22T02:32:49.208Z,101036.50
2023-02-22T02:35:48.300Z,101035.66
2023-02-22T02:38:42.251Z,101035.06
2023-02-22T02:41:12.210Z,101029.53
2023-02-22T02:44:00.925Z,101015.47
2023-02-22T02:46:34.252Z,101023.84
2023-02-22T02:49:06.203Z,101016.13
2023-02-22T02:51:37.606Z,101009.22
2023-02-22T02:54:05.113Z,100998.38
2023-02-22T02:56:32.061Z,101006.69
2023-02-22T02:59:00.210Z,101003.06
2023-02-22T03:01:29.865Z,101003.41
2023-02-22T03:04:23.596Z,101002.09
2023-02-22T03:07:04.199Z,100990.59
2023-02-22T03:09:44.514Z,100993.56
2023-02-22T03:12:34.065Z,100980.25
2023-02-22T03:15:22.732Z,100987.38
2023-02-22T03:18:09.225Z,100982.88
2023-02-22T03:20:47.790Z,100979.16
2023-02-22T03:23:25.482Z,100978.13
2023-02-22T03:25:59.354Z,100971.66
2023-02-22T03:28:28.877Z,100968.56
2023-02-22T03:30:59.374Z,100970.13
2023-02-22T03:33:34.022Z,100965.00
2023-02-22T03:36:24.963Z,100957.16
2023-02-22T03:38:55.712Z,100960.91
2023-02-22T03:41:25.211Z,100953.91
2023-02-22T03:44:00.256Z,100956.53
2023-02-22T03:46:29.431Z,100958.28
2023-02-22T03:49:12.475Z,100948.19
2023-02-22T03:51:41.011Z,100944.69
2023-02-22T03:54:09.435Z,100942.91
2023-02-22T03:56:47.248Z,100939.94
2023-02-22T03:59:14.856Z,100934.19
2023-02-22T04:01:41.880Z,100940.28
2023-02-22T04:04:08.741Z,100928.78
2023-02-22T04:06:37.848Z,100932.66
2023-02-22T04:09:04.764Z,100927.19
2023-02-22T04:11:32.265Z,100920.53
2023-02-22T04:14:00.798Z,100916.25
2023-02-22T04:16:27.738Z,100926.88
2023-02-22T04:18:54.706Z,100919.78
2023-02-22T04:21:21.535Z,100912.56
2023-02-22T04:23:50.252Z,100911.88
2023-02-22T04:26:17.851Z,100915.06
2023-02-22T04:28:50.272Z,100914.75
2023-02-22T04:31:19.580Z,100910.97
2023-02-22T04:33:46.578Z,100905.06
2023-02-22T04:36:21.716Z,100901.06
2023-02-22T04:38:48.928Z,100906.56
2023-02-22T04:41:18.535Z,100891.28
2023-02-22T04:43:45.873Z,100893.47
2023-02-22T04:46:21.764Z,100883.16
2023-02-22T04:48:48.691Z,100884.38
2023-02-22T04:51:16.928Z,100886.19
2023-02-22T04:53:57.715Z,100879.91
2023-02-22T04:56:25.133Z,100883.28
2023-02-22T04:58:51.949Z,100872.69
2023-02-22T05:01:19.427Z,100874.25
2023-02-22T05:03:47.343Z,100870.03
2023-02-22T05:06:14.095Z,100870.00
2023-02-22T05:08:40.918Z,100868.31
2023-02-22T05:11:07.666Z,100867.69
2023-02-22T05:13:34.530Z,100865.41
2023-02-22T05:16:01.503Z,100870.50
2023-02-22T05:18:28.383Z,100861.78
2023-02-22T05:20:55.304Z,100853.88
2023-02-22T05:23:22.088Z,100860.59
2023-02-22T05:25:48.767Z,100863.28
2023-02-22T05:28:16.951Z,100860.81
2023-02-22T05:30:43.715Z,100853.81
2023-02-22T05:33:10.687Z,100858.78
2023-02-22T05:35:37.452Z,100845.88
2023-02-22T05:38:05.672Z,100846.00
2023-02-22T05:40:32.921Z,100834.28
2023-02-22T05:43:00.824Z,100834.09
2023-02-22T05:45:28.210Z,100835.06
2023-02-22T05:47:55.746Z,100835.72
2023-02-22T05:50:22.804Z,100833.16
2023-02-22T05:52:49.698Z,100829.97
2023-02-22T05:55:19.258Z,100829.38
2023-02-22T05:57:46.561Z,100822.72
2023-02-22T06:00:24.115Z,100831.34
2023-02-22T06:02:57.585Z,100821.88
2023-02-22T06:05:24.612Z,100828.25
2023-02-22T06:07:51.462Z,100822.75
2023-02-22T06:10:18.713Z,100820.34
2023-02-22T06:12:46.195Z,100830.25
2023-02-22T06:15:13.892Z,100814.91
2023-02-22T06:17:41.933Z,100827.34
2023-02-22T06:20:13.793Z,100820.28
2023-02-22T06:22:43.309Z,100818.16
2023-02-22T06:25:15.283Z,100821.75
2023-02-22T06:27:42.322Z,100821.41
2023-02-22T06:30:13.094Z,100802.91
2023-02-22T06:32:40.191Z,100803.91
2023-02-22T06:35:07.410Z,100820.50
2023-02-22T06:37:34.380Z,100807.25
2023-02-22T06:40:05.533Z,100814.00
2023-02-22T06:42:32.841Z,100811.03
2023-02-22T06:44:59.927Z,100813.28
2023-02-22T06:47:26.975Z,100809.09
2023-02-22T06:49:54.668Z,100808.47
2023-02-22T06:52:22.038Z,100814.53
2023-02-22T06:54:49.067Z,100799.69
2023-02-22T06:57:16.314Z,100809.38
2023-02-22T06:59:43.487Z,100812.69
2023-02-22T07:02:14.531Z,100815.47
2023-02-22T07:04:43.534Z,100812.31
2023-02-22T07:07:10.599Z,100831.47
2023-02-22T07:09:37.534Z,100827.19
2023-02-22T07:12:04.865Z,100831.91
2023-02-22T07:14:31.546Z,100833.22
2023-02-22T07:16:58.381Z,100820.00
2023-02-22T07:19:25.525Z,100827.41
2023-02-22T07:21:59.341Z,100828.28
2023-02-22T07:24:28.581Z,100818.28
2023-02-22T07:26:55.934Z,100818.69
2023-02-22T07:29:22.694Z,100811.56
2023-02-22T07:31:49.588Z,100802.47
2023-02-22T07:34:16.503Z,100818.06
2023-02-22T07:36:43.913Z,100802.44
2023-02-22T07:39:11.184Z,100803.69
2023-02-22T07:41:37.974Z,100804.91
2023-02-22T07:44:15.457Z,100798.94
2023-02-22T07:46:42.344Z,100816.81
2023-02-22T07:49:09.104Z,100815.19
2023-02-22T07:51:35.911Z,100809.81
2023-02-22T07:54:02.599Z,100817.38
2023-02-22T07:56:29.490Z,100813.03
2023-02-22T07:58:56.174Z,100810.66
2023-02-22T08:01:24.394Z,100803.38
2023-02-22T08:03:52.779Z,100805.06
2023-02-22T08:06:21.092Z,100794.38
2023-02-22T08:08:47.874Z,100794.09
2023-02-22T08:11:15.094Z,100791.38
2023-02-22T08:13:41.951Z,100797.75
2023-02-22T08:16:09.540Z,100803.22
2023-02-22T08:18:38.495Z,100806.88
2023-02-22T08:21:05.600Z,100807.59
2023-02-22T08:23:33.303Z,100810.59
2023-02-22T08:26:08.307Z,100810.31
2023-02-22T08:28:35.693Z,100795.91
2023-02-22T08:31:03.370Z,100803.00
2023-02-22T08:33:30.203Z,100801.19
2023-02-22T08:35:57.090Z,100797.81
2023-02-22T08:38:29.645Z,100794.81
2023-02-22T08:40:57.752Z,100798.50
2023-02-22T08:43:24.977Z,100797.69
2023-02-22T08:45:55.078Z,100798.81
2023-02-22T08:48:24.203Z,100793.22
2023-02-22T08:50:51.396Z,100791.31
2023-02-22T08:53:18.587Z,100782.72
2023-02-22T08:55:46.453Z,100792.19
2023-02-22T08:58:13.790Z,100796.47
2023-02-22T09:00:42.406Z,100794.16
2023-02-22T09:03:13.421Z,100791.13
2023-02-22T09:05:41.557Z,100788.13
2023-02-22T09:08:08.766Z,100796.25
2023-02-22T09:10:35.881Z,100781.25
2023-02-22T09:13:04.181Z,100797.31
2023-02-22T09:15:31.875Z,100786.16
2023-02-22T09:17:58.939Z,100784.00
2023-02-22T09:20:27.562Z,100778.91
2023-02-22T09:22:55.331Z,100790.78
2023-02-22T09:25:23.412Z,100787.63
2023-02-22T09:27:52.349Z,100794.22
2023-02-22T09:30:32.156Z,100790.50
2023-02-22T09:33:11.171Z,100788.75
2023-02-22T09:35:42.818Z,100790.78
2023-02-22T09:38:10.641Z,100787.31
2023-02-22T09:40:45.005Z,100781.91
2023-02-22T09:43:25.133Z,100791.16
2023-02-22T09:46:05.146Z,100793.44
2023-02-22T09:48:35.348Z,100790.56
2023-02-22T09:51:03.764Z,100798.84
2023-02-22T09:53:37.340Z,100799.94
2023-02-22T09:56:11.133Z,100804.56
2023-02-22T09:58:45.136Z,100802.47
2023-02-22T10:01:30.630Z,100796.44
2023-02-22T10:04:38.121Z,100799.84
2023-02-22T10:07:15.971Z,100797.94
2023-02-22T10:09:43.468Z,100799.84
2023-02-22T10:12:19.121Z,100793.34
2023-02-22T10:14:57.342Z,100790.94
2023-02-22T10:17:30.565Z,100784.38
2023-02-22T10:20:06.422Z,100788.06
2023-02-22T10:22:52.233Z,100793.16
2023-02-22T10:25:23.015Z,100792.69
2023-02-22T10:28:03.873Z,100802.09
2023-02-22T10:30:36.822Z,100795.22
2023-02-22T10:33:10.859Z,100784.41
2023-02-22T10:35:41.102Z,100802.72
2023-02-22T10:38:19.069Z,100796.97
2023-02-22T10:40:51.269Z,100784.50
2023-02-22T10:43:18.338Z,100787.53
2023-02-22T10:45:45.398Z,100783.72
2023-02-22T10:48:15.583Z,100781.81
2023-02-22T10:50:43.652Z,100781.94
2023-02-22T10:53:11.860Z,100792.50
2023-02-22T10:56:16.059Z,100783.88
2023-02-22T10:59:05.963Z,100784.47
2023-02-22T11:01:33.041Z,100776.06
2023-02-22T11:04:12.177Z,100777.63
2023-02-22T11:06:44.487Z,100774.94
2023-02-22T11:09:13.524Z,100783.19
2023-02-22T11:11:43.126Z,100779.94
2023-02-22T11:14:11.975Z,100771.91
2023-02-22T11:16:42.970Z,100767.97
2023-02-22T11:19:16.094Z,100770.94
2023-02-22T11:21:43.629Z,100760.13
2023-02-22T11:24:14.086Z,100760.66
2023-02-22T11:26:43.010Z,100766.25
2023-02-22T11:29:13.247Z,100769.72
2023-02-22T11:31:45.035Z,100770.47
2023-02-22T11:34:34.194Z,100768.66
2023-02-22T11:37:18.335Z,100758.91
2023-02-22T11:39:45.662Z,100764.66
2023-02-22T11:42:27.251Z,100766.53
2023-02-22T11:45:21.940Z,100771.13
2023-02-22T11:47:52.695Z,100766.97
2023-02-22T11:50:33.306Z,100765.16
2023-02-22T11:53:14.979Z,100762.09
2023-02-22T11:56:28.423Z,100758.16
2023-02-22T11:59:11.591Z,100764.72
2023-02-22T12:01:51.605Z,100767.72
2023-02-22T12:04:43.617Z,100760.03
2023-02-22T12:07:22.463Z,100763.88
2023-02-22T12:10:05.589Z,100765.94
2023-02-22T12:12:35.898Z,100768.56
2023-02-22T12:15:27.466Z,100766.41
2023-02-22T12:18:05.784Z,100765.31
2023-02-22T12:20:47.901Z,100759.44
2023-02-22T12:23:19.827Z,100763.47
2023-02-22T12:25:58.949Z,100759.63
2023-02-22T12:29:01.521Z,100755.78
2023-02-22T12:31:34.058Z,100757.06
2023-02-22T12:34:13.968Z,100754.34
2023-02-22T12:36:47.560Z,100759.78
2023-02-22T12:39:52.224Z,100766.25
2023-02-22T12:42:53.766Z,100758.25
2023-02-22T12:45:29.339Z,100762.16
2023-02-22T12:48:14.579Z,100763.66
2023-02-22T12:50:43.039Z,100761.28
2023-02-22T12:53:10.029Z,100764.06
2023-02-22T12:55:45.935Z,100762.59
2023-02-22T12:58:27.045Z,100766.25
2023-02-22T13:01:22.441Z,100761.59
2023-02-22T13:03:49.421Z,100757.38
2023-02-22T13:06:31.750Z,100761.47
2023-02-22T13:09:27.277Z,100760.28
2023-02-22T13:12:13.063Z,100761.88
2023-02-22T13:14:52.202Z,100769.22
2023-02-22T13:17:38.184Z,100760.22
2023-02-22T13:20:14.461Z,100766.63
2023-02-22T13:22:49.099Z,100753.09
2023-02-22T13:25:25.693Z,100765.47
2023-02-22T13:28:00.677Z,100754.16
2023-02-22T13:30:46.251Z,100755.63
2023-02-22T13:33:25.696Z,100756.59
2023-02-22T13:36:18.971Z,100760.78
2023-02-22T13:38:57.656Z,100757.56
2023-02-22T13:41:45.314Z,100746.06
2023-02-22T13:44:46.210Z,100755.44
2023-02-22T13:47:30.251Z,100755.47
2023-02-22T13:50:09.148Z,100754.75
2023-02-22T13:52:39.194Z,100766.00
2023-02-22T13:55:12.093Z,100755.03
2023-02-22T13:57:40.910Z,100759.94
2023-02-22T14:00:21.023Z,100768.84
2023-02-22T14:03:02.426Z,100763.38
2023-02-22T14:05:51.058Z,100767.53
2023-02-22T14:08:18.846Z,100772.22
2023-02-22T14:10:57.816Z,100767.81
2023-02-22T14:13:33.310Z,100771.88
2023-02-22T14:16:00.360Z,100780.84
2023-02-22T14:18:31.925Z,100772.25
2023-02-22T14:21:16.367Z,100782.38
2023-02-22T14:23:50.410Z,100775.78
2023-02-22T14:26:30.917Z,100777.78
2023-02-22T14:29:01.073Z,100776.72
2023-02-22T14:31:37.014Z,100775.75
2023-02-22T14:34:16.380Z,100777.97
2023-02-22T14:37:01.101Z,100772.75
2023-02-22T14:39:32.193Z,100775.31
2023-02-22T14:42:03.781Z,100765.59
2023-02-22T14:44:36.016Z,100779.59
2023-02-22T14:47:05.394Z,100780.81
2023-02-22T14:49:36.773Z,100780.09
2023-02-22T14:52:08.289Z,100780.63
2023-02-22T14:54:50.149Z,100766.41
2023-02-22T14:57:39.054Z,100778.34
2023-02-22T15:00:20.086Z,100777.59
2023-02-22T15:02:57.444Z,100774.25
2023-02-22T15:05:26.501Z,100769.56
2023-02-22T15:07:59.844Z,100769.06
2023-02-22T15:10:43.079Z,100765.13
2023-02-22T15:13:19.458Z,100764.38
2023-02-22T15:15:49.791Z,100761.06
2023-02-22T15:18:47.338Z,100760.34
2023-02-22T15:21:17.767Z,100771.91
2023-02-22T15:23:54.090Z,100764.69
2023-02-22T15:26:25.377Z,100761.03
2023-02-22T15:28:57.072Z,100772.63
2023-02-22T15:31:37.584Z,100785.97
2023-02-22T15:34:19.300Z,100780.00
2023-02-22T15:36:47.865Z,100781.13
2023-02-22T15:39:29.523Z,100783.66
2023-02-22T15:42:19.281Z,100791.34
2023-02-22T15:44:48.229Z,100787.41
2023-02-22T15:47:19.905Z,100790.53
2023-02-22T15:50:25.986Z,100804.00
2023-02-22T15:52:55.155Z,100808.50
2023-02-22T15:55:25.867Z,100789.22
2023-02-22T15:57:52.947Z,100795.28
2023-02-22T16:00:38.522Z,100801.84
2023-02-22T16:03:10.040Z,100803.50
2023-02-22T16:05:44.628Z,100803.66
2023-02-22T16:08:31.517Z,100803.16
2023-02-22T16:11:04.780Z,100797.75
2023-02-22T16:13:35.620Z,100795.22
2023-02-22T16:16:05.417Z,100792.31
2023-02-22T16:18:36.337Z,100803.13
2023-02-22T16:21:12.290Z,100803.59
2023-02-22T16:23:48.524Z,100812.94
2023-02-22T16:26:35.217Z,100793.94
2023-02-22T16:29:06.110Z,100796.69
2023-02-22T16:31:37.231Z,100800.78
2023-02-22T16:34:07.003Z,100809.66
2023-02-22T16:36:40.500Z,100795.72
2023-02-22T16:39:08.885Z,100804.53
2023-02-22T16:41:35.750Z,100803.13
2023-02-22T16:44:08.286Z,100811.00
2023-02-22T16:46:36.300Z,100820.59
2023-02-22T16:49:10.753Z,100804.97
2023-02-22T16:52:02.852Z,100812.16
2023-02-22T16:57:29.253Z,100815.13
2023-02-22T16:59:59.505Z,100825.38
2023-02-22T17:02:27.898Z,100832.22
2023-02-22T17:04:54.970Z,100837.03
2023-02-22T17:07:30.022Z,100833.19
2023-02-22T17:10:00.757Z,100839.34
2023-02-22T17:12:29.369Z,100831.94
2023-02-22T17:14:56.228Z,100839.44
2023-02-22T17:17:23.140Z,100846.44
2023-02-22T17:19:50.139Z,100841.25
2023-02-22T17:22:22.510Z,100852.69
2023-02-22T17:24:49.923Z,100847.41
2023-02-22T17:27:16.692Z,100852.34
2023-02-22T17:29:45.140Z,100859.06
2023-02-22T17:32:12.822Z,100853.50
2023-02-22T17:34:42.871Z,100858.22
2023-02-22T17:37:35.811Z,100859.88
2023-02-22T17:40:06.949Z,100855.84
2023-02-22T17:42:34.415Z,100859.38
2023-02-22T17:45:01.640Z,100869.91
2023-02-22T17:47:29.290Z,100863.44
2023-02-22T17:49:58.008Z,100871.09
2023-02-22T17:52:24.800Z,100867.50
2023-02-22T17:54:51.736Z,100867.31
2023-02-22T17:57:18.883Z,100878.63
2023-02-22T17:59:45.607Z,100879.31
2023-02-22T18:02:12.567Z,100878.50
2023-02-22T18:04:40.793Z,100886.94
2023-02-22T18:07:07.704Z,100888.59
2023-02-22T18:09:35.912Z,100882.22
2023-02-22T18:12:02.950Z,100876.59
2023-02-22T18:14:29.723Z,100872.31
2023-02-22T18:16:56.535Z,100885.84
2023-02-22T18:19:23.470Z,100874.03
2023-02-22T18:21:50.300Z,100874.72
2023-02-22T18:24:18.517Z,100875.34
2023-02-22T18:26:45.299Z,100875.84
2023-02-22T18:29:12.430Z,100871.03
2023-02-22T18:31:39.269Z,100871.34
2023-02-22T18:34:06.112Z,100880.09
2023-02-22T18:36:32.914Z,100881.09
2023-02-22T18:38:59.708Z,100872.75
2023-02-22T18:41:26.657Z,100881.38
2023-02-22T18:43:55.669Z,100876.59
2023-02-22T18:46:23.514Z,100874.53
2023-02-22T18:48:53.913Z,100880.09
2023-02-22T18:51:21.049Z,100878.84
2023-02-22T18:53:49.922Z,100873.13
2023-02-22T18:56:22.254Z,100875.19
2023-02-22T18:58:53.722Z,100873.25
2023-02-22T19:01:22.291Z,100877.56
2023-02-22T19:03:49.183Z,100864.28
2023-02-22T19:06:17.106Z,100876.78
2023-02-22T19:08:44.983Z,100863.50
2023-02-22T19:11:17.977Z,100864.78
2023-02-22T19:13:50.464Z,100872.13
2023-02-22T19:16:21.405Z,100861.44
2023-02-22T19:18:49.293Z,100870.41
2023-02-22T19:21:16.680Z,100866.69
2023-02-22T19:23:48.048Z,100870.84
2023-02-22T19:26:26.135Z,100872.16
2023-02-22T19:28:54.847Z,100872.75
2023-02-22T19:31:22.008Z,100874.06
2023-02-22T19:33:52.583Z,100875.34
2023-02-22T19:36:20.464Z,100870.88
2023-02-22T19:38:47.210Z,100870.50
2023-02-22T19:41:22.876Z,100868.56
2023-02-22T19:43:54.515Z,100870.44
2023-02-22T19:46:21.817Z,100872.66
2023-02-22T19:48:49.904Z,100873.41
2023-02-22T19:51:18.769Z,100881.56
2023-02-22T19:53:47.572Z,100874.75
2023-02-22T19:56:16.781Z,100874.69
2023-02-22T19:58:45.357Z,100880.91
2023-02-22T20:01:23.296Z,100866.44
2023-02-22T20:03:54.689Z,100869.28
2023-02-22T20:06:28.642Z,100880.41
2023-02-22T20:08:56.427Z,100882.00
2023-02-22T20:11:24.459Z,100873.25
2023-02-22T20:13:52.521Z,100876.97
2023-02-22T20:16:19.276Z,100876.56
2023-02-22T20:18:46.992Z,100877.03
2023-02-22T20:21:19.858Z,100881.06
2023-02-22T20:23:46.921Z,100883.59
2023-02-22T20:26:18.444Z,100874.75
2023-02-22T20:28:45.900Z,100872.31
2023-02-22T20:31:14.095Z,100879.97
2023-02-22T20:33:41.945Z,100873.56
2023-02-22T20:36:10.637Z,100879.75
2023-02-22T20:38:38.401Z,100887.25
2023-02-22T20:41:07.097Z,100883.78
2023-02-22T20:43:34.495Z,100886.03
2023-02-22T20:46:05.359Z,100882.28
2023-02-22T20:48:32.676Z,100884.31
2023-02-22T20:51:07.124Z,100881.59
2023-02-22T20:53:35.349Z,100880.41
2023-02-22T20:56:02.384Z,100891.06
2023-02-22T20:58:29.453Z,100886.69
2023-02-22T21:00:56.191Z,100889.34
2023-02-22T21:03:23.038Z,100877.41
2023-02-22T21:05:49.693Z,100885.22
2023-02-22T21:08:16.639Z,100878.19
2023-02-22T21:10:48.098Z,100874.03
2023-02-22T21:13:17.588Z,100885.91
2023-02-22T21:15:47.109Z,100885.06
2023-02-22T21:18:14.515Z,100883.31
2023-02-22T21:20:43.283Z,100881.88
2023-02-22T21:23:11.214Z,100880.13
2023-02-22T21:25:38.324Z,100876.16
2023-02-22T21:28:05.268Z,100876.91
2023-02-22T21:30:33.006Z,100869.44
2023-02-22T21:33:06.286Z,100872.78
2023-02-22T21:35:36.969Z,100882.19
2023-02-22T21:38:03.755Z,100877.09
2023-02-22T21:40:30.633Z,100876.25
2023-02-22T21:42:57.444Z,100880.41
2023-02-22T21:45:24.104Z,100879.97
2023-02-22T21:47:55.949Z,100878.16
2023-02-22T21:50:25.451Z,100878.22
2023-02-22T21:52:52.081Z,100869.75
2023-02-22T21:55:19.354Z,100878.81
2023-02-22T21:57:46.036Z,100880.59
2023-02-22T22:00:17.398Z,100872.66
2023-02-22T22:02:51.394Z,100877.28
2023-02-22T22:05:30.069Z,100879.03
2023-02-22T22:07:57.650Z,100875.97
2023-02-22T22:10:27.847Z,100877.06
2023-02-22T22:12:55.068Z,100873.06
2023-02-22T22:15:23.604Z,100873.38
2023-02-22T22:17:50.615Z,100875.44
2023-02-22T22:20:17.428Z,100872.88
2023-02-22T22:22:46.113Z,100877.13
2023-02-22T22:25:14.265Z,100867.50
2023-02-22T22:27:41.143Z,100872.31
2023-02-22T22:30:08.426Z,100871.31
2023-02-22T22:32:36.401Z,100871.22
2023-02-22T22:35:04.694Z,100871.00
2023-02-22T22:37:31.598Z,100872.81
2023-02-22T22:39:58.586Z,100872.13
2023-02-22T22:42:25.765Z,100868.50
2023-02-22T22:44:53.228Z,100878.41
2023-02-22T22:47:20.715Z,100875.63
2023-02-22T22:49:47.895Z,100872.59
2023-02-22T22:52:16.585Z,100880.34
2023-02-22T22:54:44.349Z,100873.47
2023-02-22T22:57:14.706Z,100871.66
2023-02-22T22:59:41.615Z,100870.81
2023-02-22T23:02:11.356Z,100873.50
2023-02-22T23:04:38.130Z,100872.34
2023-02-22T23:07:06.621Z,100875.06
2023-02-22T23:09:38.586Z,100878.47
2023-02-22T23:12:09.330Z,100877.28
2023-02-22T23:14:39.477Z,100872.50
2023-02-22T23:17:15.120Z,100883.53
2023-02-22T23:19:44.997Z,100881.31
2023-02-22T23:22:14.345Z,100872.13
2023-02-22T23:24:44.546Z,100876.25
2023-02-22T23:27:12.390Z,100877.97
2023-02-22T23:29:40.774Z,100872.72
2023-02-22T23:32:08.189Z,100881.25
2023-02-22T23:34:36.060Z,100878.16
2023-02-22T23:37:03.216Z,100881.31
2023-02-22T23:39:29.951Z,100875.38
2023-02-22T23:42:00.877Z,100879.13
2023-02-22T23:44:28.130Z,100875.69
2023-02-22T23:46:55.623Z,100879.47
2023-02-22T23:49:27.616Z,100881.75
2023-02-22T23:51:54.672Z,100883.31
2023-02-22T23:54:21.760Z,100882.53
2023-02-22T23:56:58.456Z,100889.56
2023-02-22T23:59:26.557Z,100891.13
